This is the latest recevied weather packets stored in our database for station/object PY2FLB-13. If no packets are shown the sender has not sent any weather packets the latest 10 day(s).
| Time | Temp. | Humidity | Pressure | Rain* | Wind** | Luminosity | Snow |
|---|---|---|---|---|---|---|---|
| 1778117160 | 26.67° C | 42% | 1015.3 hPa | - | - | - | - |
| 1778116860 | 26.67° C | 42% | 1015.3 hPa | - | - | - | - |
| 1778116561 | 27.22° C | 41% | 1015.2 hPa | - | - | - | - |
| 1778116260 | 27.78° C | 40% | 1015 hPa | - | - | - | - |
| 1778115960 | 27.22° C | 41% | 1015 hPa | - | - | - | - |
| 1778115660 | 27.22° C | 41% | 1015.1 hPa | - | - | - | - |
| 1778115360 | 28.33° C | 39% | 1014.8 hPa | - | - | - | - |
| 1778115060 | 28.33° C | 39% | 1014.8 hPa | - | - | - | - |
| 1778114760 | 26.67° C | 42% | 1015.1 hPa | - | - | - | - |
| 1778114460 | 26.11° C | 43% | 1015.3 hPa | - | - | - | - |
| 1778114160 | 26.67° C | 43% | 1015.3 hPa | - | - | - | - |
| 1778113860 | 26.67° C | 42% | 1015.2 hPa | - | - | - | - |
| 1778113561 | 27.22° C | 41% | 1015.2 hPa | - | - | - | - |
| 1778113260 | 27.22° C | 41% | 1015.3 hPa | - | - | - | - |
| 1778112960 | 26.67° C | 41% | 1015.3 hPa | - | - | - | - |
| 1778112660 | 27.22° C | 39% | 1015.3 hPa | - | - | - | - |
| 1778112360 | 27.22° C | 40% | 1015.4 hPa | - | - | - | - |
| 1778112060 | 27.22° C | 40% | 1015.3 hPa | - | - | - | - |
| 1778111760 | 27.22° C | 40% | 1015.3 hPa | - | - | - | - |
| 1778111460 | 27.78° C | 39% | 1015.1 hPa | - | - | - | - |
| 1778111160 | 27.78° C | 39% | 1015.1 hPa | - | - | - | - |
| 1778110860 | 27.78° C | 39% | 1015.1 hPa | - | - | - | - |
| 1778110560 | 27.78° C | 39% | 1015.1 hPa | - | - | - | - |
| 1778110260 | 27.78° C | 39% | 1015 hPa | - | - | - | - |
| 1778109960 | 27.78° C | 39% | 1015 hPa | - | - | - | - |
* Rain since midnight (hover to see other rain measurements)
** Current wind speed in m/s (hover to see current wind gust speed)